Time;durP1;ratioP1;P1;durP2;ratioP2;P2;SDS_P1;SDS_P2;PMS_P1;PMS_P2;Temp;Humidity;BMP_temperature;BMP_pressure;BME280_temperature;BME280_humidity;BME280_pressure;Samples;Min_cycle;Max_cycle;Signal;HPM_P1;HPM_P2
2022/08/14 00:00:50;;;;;;;4.60;2.28;;;;;;;;;;5053920;28;20044;-58
2022/08/14 00:03:24;;;;;;;4.75;2.50;;;;;;;;;;5051872;28;20490;-59
2022/08/14 00:05:51;;;;;;;6.63;2.33;;;;;;;;;;5050349;28;20032;-59
2022/08/14 00:08:18;;;;;;;4.65;2.35;;;;;;;;;;5052725;28;20052;-59
2022/08/14 00:10:45;;;;;;;5.43;2.13;;;;;;;;;;5052010;28;20905;-59
2022/08/14 00:13:11;;;;;;;4.72;2.13;;;;;;;;;;5050510;28;20064;-58
2022/08/14 00:15:39;;;;;;;6.00;2.50;;;;;;;;;;5049431;28;20033;-58
2022/08/14 00:18:08;;;;;;;3.97;2.20;;;;;;;;;;5051375;28;20471;-59
2022/08/14 00:20:36;;;;;;;5.32;2.10;;;;;;;;;;5051180;28;20538;-58
2022/08/14 00:23:04;;;;;;;5.00;2.38;;;;;;;;;;5052016;28;20486;-58
2022/08/14 00:25:31;;;;;;;4.75;2.30;;;;;;;;;;5050496;28;21478;-59
2022/08/14 00:27:57;;;;;;;3.97;2.30;;;;;;;;;;5052886;28;20045;-59
2022/08/14 00:30:24;;;;;;;4.95;2.33;;;;;;;;;;5050930;28;20033;-58
2022/08/14 00:32:51;;;;;;;6.65;2.60;;;;;;;;;;5051650;28;20040;-58
2022/08/14 00:35:17;;;;;;;4.28;2.13;;;;;;;;;;5051220;28;20159;-58
2022/08/14 00:37:45;;;;;;;5.85;2.45;;;;;;;;;;5050594;28;20101;-59
2022/08/14 00:40:13;;;;;;;4.68;2.38;;;;;;;;;;5052213;28;20067;-58
2022/08/14 00:42:40;;;;;;;4.25;2.20;;;;;;;;;;5051626;28;20039;-58
2022/08/14 00:45:08;;;;;;;4.82;2.05;;;;;;;;;;5050284;28;20034;-58
2022/08/14 00:47:35;;;;;;;4.78;2.33;;;;;;;;;;5050857;28;20075;-58
2022/08/14 00:50:03;;;;;;;4.30;2.22;;;;;;;;;;5051188;28;20052;-58
2022/08/14 00:52:30;;;;;;;4.05;2.17;;;;;;;;;;5049095;28;20055;-58
2022/08/14 00:54:58;;;;;;;7.47;2.40;;;;;;;;;;5050892;28;20037;-58
2022/08/14 00:57:25;;;;;;;5.78;2.38;;;;;;;;;;5050077;28;20052;-57
2022/08/14 00:59:52;;;;;;;5.72;2.60;;;;;;;;;;5052052;28;20114;-58
2022/08/14 01:02:23;;;;;;;4.47;2.40;;;;;;;;;;5052020;28;20036;-59
2022/08/14 01:04:56;;;;;;;5.28;2.28;;;;;;;;;;5049778;28;20040;-59
2022/08/14 01:07:24;;;;;;;5.18;2.33;;;;;;;;;;5050545;28;20043;-59
2022/08/14 01:09:52;;;;;;;4.72;2.38;;;;;;;;;;5052354;28;20040;-58
2022/08/14 01:12:20;;;;;;;5.32;2.40;;;;;;;;;;5049238;28;20032;-58
2022/08/14 01:14:50;;;;;;;6.43;2.58;;;;;;;;;;5051280;28;20044;-57
2022/08/14 01:17:17;;;;;;;4.93;2.00;;;;;;;;;;5050273;28;20114;-59
2022/08/14 01:22:29;;;;;;;5.55;2.00;;;;;;;;;;5050038;28;20106;-58
2022/08/14 01:24:56;;;;;;;5.07;2.20;;;;;;;;;;5052204;28;20048;-59
2022/08/14 01:27:23;;;;;;;5.50;2.40;;;;;;;;;;5051144;28;20048;-58
2022/08/14 01:29:52;;;;;;;4.20;2.30;;;;;;;;;;5050786;28;20037;-58
2022/08/14 01:32:20;;;;;;;4.57;2.30;;;;;;;;;;5050868;28;20041;-58
2022/08/14 01:34:52;;;;;;;4.70;2.30;;;;;;;;;;5052975;28;20044;-58
2022/08/14 01:37:21;;;;;;;4.85;2.35;;;;;;;;;;5053108;28;20041;-59
2022/08/14 01:39:48;;;;;;;4.72;2.58;;;;;;;;;;5053843;28;20048;-59
2022/08/14 01:42:15;;;;;;;4.60;2.30;;;;;;;;;;5052696;28;20039;-60
2022/08/14 01:44:42;;;;;;;5.55;2.80;;;;;;;;;;5051638;28;20581;-59
2022/08/14 01:47:12;;;;;;;4.85;2.30;;;;;;;;;;5051002;28;21714;-59
2022/08/14 01:49:40;;;;;;;4.53;2.38;;;;;;;;;;5049979;28;20110;-58
2022/08/14 01:52:07;;;;;;;6.85;2.60;;;;;;;;;;5051005;28;20044;-59
2022/08/14 01:54:34;;;;;;;5.25;2.63;;;;;;;;;;5051112;28;20838;-58
2022/08/14 01:57:01;;;;;;;6.15;2.58;;;;;;;;;;5049987;28;20035;-58
2022/08/14 01:59:33;;;;;;;5.20;2.00;;;;;;;;;;5049378;28;20132;-58
2022/08/14 02:02:00;;;;;;;;;;;;;;;;;;5050916;28;20051;-58
2022/08/14 02:04:32;;;;;;;3.58;1.95;;;;;;;;;;5049232;28;20578;-58
2022/08/14 02:06:59;;;;;;;6.05;2.30;;;;;;;;;;5050130;28;20040;-59
2022/08/14 02:09:26;;;;;;;5.80;2.33;;;;;;;;;;5049052;28;20594;-58
2022/08/14 02:11:55;;;;;;;5.53;2.53;;;;;;;;;;5051657;28;20547;-57
2022/08/14 02:14:22;;;;;;;5.30;2.08;;;;;;;;;;5049525;28;20071;-58
2022/08/14 02:16:51;;;;;;;4.75;2.00;;;;;;;;;;5049453;28;20050;-59
2022/08/14 02:19:20;;;;;;;3.97;1.70;;;;;;;;;;5049768;28;20048;-58
2022/08/14 02:21:51;;;;;;;5.63;2.17;;;;;;;;;;5049922;28;20132;-57
2022/08/14 02:24:22;;;;;;;4.93;1.95;;;;;;;;;;5049776;28;20049;-58
2022/08/14 02:26:49;;;;;;;4.57;1.92;;;;;;;;;;5049078;28;20806;-58
2022/08/14 02:29:17;;;;;;;5.47;2.20;;;;;;;;;;5049819;28;20362;-56
2022/08/14 02:31:48;;;;;;;5.53;2.17;;;;;;;;;;5049702;28;20167;-57
2022/08/14 02:34:16;;;;;;;4.22;1.90;;;;;;;;;;5050277;28;20054;-57
2022/08/14 02:36:42;;;;;;;4.32;1.85;;;;;;;;;;5052953;28;20033;-57
2022/08/14 02:39:10;;;;;;;7.63;2.28;;;;;;;;;;5050212;28;20368;-56
2022/08/14 02:41:37;;;;;;;4.03;1.85;;;;;;;;;;5050005;28;20116;-57
2022/08/14 02:44:04;;;;;;;4.32;1.90;;;;;;;;;;5050267;28;20029;-58
2022/08/14 02:46:31;;;;;;;4.63;1.90;;;;;;;;;;5047821;28;20063;-57
2022/08/14 02:48:58;;;;;;;6.43;1.90;;;;;;;;;;5049725;28;20076;-57
2022/08/14 02:51:25;;;;;;;5.65;1.90;;;;;;;;;;5049646;28;20116;-58
2022/08/14 02:53:53;;;;;;;4.03;1.85;;;;;;;;;;5050078;28;20047;-59
2022/08/14 02:56:20;;;;;;;5.22;1.98;;;;;;;;;;5049243;28;20103;-58
2022/08/14 02:58:49;;;;;;;4.15;1.80;;;;;;;;;;5050106;28;20040;-57
2022/08/14 03:01:17;;;;;;;8.75;2.13;;;;;;;;;;5049784;28;20064;-58
2022/08/14 03:03:44;;;;;;;6.20;1.92;;;;;;;;;;5050727;28;20046;-58
2022/08/14 03:06:11;;;;;;;6.18;2.03;;;;;;;;;;5049755;28;20050;-58
2022/08/14 03:08:39;;;;;;;5.90;2.20;;;;;;;;;;5050810;28;20121;-57
2022/08/14 03:11:10;;;;;;;5.28;2.10;;;;;;;;;;5049903;28;20514;-57
2022/08/14 03:13:38;;;;;;;8.75;2.22;;;;;;;;;;5049292;28;20048;-58
2022/08/14 03:16:06;;;;;;;5.65;2.20;;;;;;;;;;5049726;28;20041;-56
2022/08/14 03:18:32;;;;;;;6.43;2.22;;;;;;;;;;5049453;28;20048;-57
2022/08/14 03:21:03;;;;;;;6.68;2.65;;;;;;;;;;5049946;28;20068;-58
2022/08/14 03:23:34;;;;;;;6.45;2.42;;;;;;;;;;5049245;28;20052;-58
2022/08/14 03:26:02;;;;;;;6.30;2.08;;;;;;;;;;5049319;28;20045;-58
2022/08/14 03:28:29;;;;;;;4.88;2.55;;;;;;;;;;5047985;28;20080;-59
2022/08/14 03:30:56;;;;;;;8.02;2.25;;;;;;;;;;5052020;28;20041;-58
2022/08/14 03:33:23;;;;;;;5.63;2.22;;;;;;;;;;5050554;28;20113;-58
2022/08/14 03:35:50;;;;;;;6.68;2.30;;;;;;;;;;5050317;28;20040;-57
2022/08/14 03:38:17;;;;;;;5.28;2.25;;;;;;;;;;5050861;28;20044;-58
2022/08/14 03:40:45;;;;;;;5.53;2.25;;;;;;;;;;5049242;28;20052;-57
2022/08/14 03:43:12;;;;;;;7.13;2.22;;;;;;;;;;5050077;28;20037;-60
2022/08/14 03:45:39;;;;;;;6.35;2.30;;;;;;;;;;5049292;28;20082;-57
2022/08/14 03:48:22;;;;;;;7.22;2.40;;;;;;;;;;5049945;28;20090;-57
2022/08/14 03:50:50;;;;;;;6.10;2.47;;;;;;;;;;5054623;28;20048;-56
2022/08/14 03:53:19;;;;;;;5.63;2.25;;;;;;;;;;5053972;28;20107;-56
2022/08/14 03:55:46;;;;;;;5.32;2.17;;;;;;;;;;5052087;28;20036;-57
2022/08/14 03:58:14;;;;;;;5.13;2.10;;;;;;;;;;5054583;28;20830;-58
2022/08/14 04:00:41;;;;;;;5.53;2.67;;;;;;;;;;5054092;28;20506;-56
2022/08/14 04:03:09;;;;;;;6.40;2.42;;;;;;;;;;5054163;28;20033;-57
2022/08/14 04:05:41;;;;;;;7.43;2.10;;;;;;;;;;5052086;28;20079;-56
2022/08/14 04:08:10;;;;;;;5.43;2.57;;;;;;;;;;5052949;28;20131;-56
2022/08/14 04:10:37;;;;;;;5.15;2.22;;;;;;;;;;5053324;28;20044;-57
2022/08/14 04:13:04;;;;;;;12.35;2.58;;;;;;;;;;5054127;28;20049;-58
2022/08/14 04:15:34;;;;;;;5.05;2.28;;;;;;;;;;5052535;28;20411;-57
2022/08/14 04:18:07;;;;;;;7.03;2.20;;;;;;;;;;5055794;28;20186;-57
2022/08/14 04:20:33;;;;;;;;;;;;;;;;;;5053618;28;20045;-58
2022/08/14 04:23:00;;;;;;;5.72;2.10;;;;;;;;;;5054012;28;20298;-58
2022/08/14 04:25:27;;;;;;;5.65;2.47;;;;;;;;;;5052742;28;20047;-58
2022/08/14 04:27:54;;;;;;;4.70;2.30;;;;;;;;;;5053181;28;20092;-58
2022/08/14 04:30:21;;;;;;;6.15;2.33;;;;;;;;;;5052598;28;20041;-56
2022/08/14 04:32:47;;;;;;;4.32;1.98;;;;;;;;;;5053441;28;20091;-57
2022/08/14 04:35:14;;;;;;;7.03;2.50;;;;;;;;;;5052923;28;20040;-57
2022/08/14 04:45:55;;;;;;;5.72;2.40;;;;;;;;;;5052076;28;20050;-57
2022/08/14 04:48:22;;;;;;;4.50;1.95;;;;;;;;;;5056879;28;20102;-58
2022/08/14 04:50:49;;;;;;;5.63;2.38;;;;;;;;;;5053533;28;20128;-57
2022/08/14 04:53:18;;;;;;;8.90;3.65;;;;;;;;;;5052277;28;20044;-59
2022/08/14 04:55:47;;;;;;;6.47;2.90;;;;;;;;;;5052202;28;20048;-58
2022/08/14 04:58:21;;;;;;;5.57;2.15;;;;;;;;;;5056582;28;20103;-58
2022/08/14 05:00:49;;;;;;;6.00;2.38;;;;;;;;;;5051378;28;20847;-58
2022/08/14 05:03:20;;;;;;;5.45;2.55;;;;;;;;;;5053126;28;20064;-58
2022/08/14 05:05:50;;;;;;;6.20;2.88;;;;;;;;;;5051427;28;20037;-58
2022/08/14 05:08:17;;;;;;;5.88;2.70;;;;;;;;;;5052351;28;20100;-58
2022/08/14 05:10:45;;;;;;;7.25;2.80;;;;;;;;;;5051525;28;20049;-58
2022/08/14 05:13:12;;;;;;;6.97;3.05;;;;;;;;;;5038868;28;20376;-58
2022/08/14 05:15:40;;;;;;;8.70;3.15;;;;;;;;;;5049337;28;20553;-58
2022/08/14 05:18:12;;;;;;;9.85;3.70;;;;;;;;;;5052091;28;20559;-59
2022/08/14 05:20:41;;;;;;;8.07;3.80;;;;;;;;;;5051222;28;20036;-58
2022/08/14 05:23:07;;;;;;;11.00;4.32;;;;;;;;;;5050828;28;20028;-58
2022/08/14 05:25:34;;;;;;;6.53;3.53;;;;;;;;;;5051939;28;20127;-58
2022/08/14 05:28:11;;;;;;;10.02;3.88;;;;;;;;;;5052348;28;20538;-57
2022/08/14 05:30:42;;;;;;;8.20;3.67;;;;;;;;;;5051213;28;20048;-58
2022/08/14 05:33:09;;;;;;;5.50;3.25;;;;;;;;;;5051816;28;20125;-54
2022/08/14 05:35:36;;;;;;;7.95;3.78;;;;;;;;;;5050655;28;20036;-57
2022/08/14 05:38:08;;;;;;;10.30;3.63;;;;;;;;;;5054178;28;20055;-58
2022/08/14 05:40:34;;;;;;;8.25;4.07;;;;;;;;;;5053660;28;20040;-58
2022/08/14 05:43:01;;;;;;;9.73;4.10;;;;;;;;;;5052905;28;20085;-57
2022/08/14 05:45:28;;;;;;;7.68;4.00;;;;;;;;;;5049998;28;20036;-57
2022/08/14 05:47:55;;;;;;;9.05;3.55;;;;;;;;;;5051429;28;20127;-57
2022/08/14 05:50:21;;;;;;;7.47;4.03;;;;;;;;;;5051405;28;20052;-57
2022/08/14 05:52:49;;;;;;;9.20;4.28;;;;;;;;;;5051014;28;20569;-56
2022/08/14 05:55:16;;;;;;;8.43;3.90;;;;;;;;;;5051090;28;20037;-56
2022/08/14 05:57:56;;;;;;;6.93;3.67;;;;;;;;;;5051244;28;20052;-58
2022/08/14 06:00:24;;;;;;;9.50;4.65;;;;;;;;;;5049190;28;20055;-57
2022/08/14 06:02:50;;;;;;;11.57;4.40;;;;;;;;;;5050638;28;20032;-58
2022/08/14 06:05:17;;;;;;;8.10;4.13;;;;;;;;;;5048891;28;20745;-58
2022/08/14 06:07:44;;;;;;;9.50;4.45;;;;;;;;;;5049284;28;20513;-57
2022/08/14 06:10:11;;;;;;;12.70;4.50;;;;;;;;;;5049635;28;20037;-57
2022/08/14 06:12:37;;;;;;;8.15;4.35;;;;;;;;;;5046956;28;20511;-58
2022/08/14 06:15:05;;;;;;;13.70;4.78;;;;;;;;;;5049394;28;20467;-57
2022/08/14 06:17:32;;;;;;;10.57;4.63;;;;;;;;;;5049931;28;20502;-58
2022/08/14 06:19:59;;;;;;;11.43;4.15;;;;;;;;;;5048758;28;20064;-56
2022/08/14 06:22:26;;;;;;;9.55;4.45;;;;;;;;;;5036331;28;20567;-57
2022/08/14 06:24:53;;;;;;;8.95;3.95;;;;;;;;;;5048666;28;20056;-57
2022/08/14 06:27:19;;;;;;;6.78;3.70;;;;;;;;;;5049166;28;20032;-57
2022/08/14 06:29:46;;;;;;;12.73;4.10;;;;;;;;;;5049938;28;20109;-56
2022/08/14 06:32:12;;;;;;;12.00;4.55;;;;;;;;;;5048889;28;20039;-57
2022/08/14 06:34:39;;;;;;;8.60;4.65;;;;;;;;;;5048238;28;20036;-56
2022/08/14 06:37:06;;;;;;;9.40;3.45;;;;;;;;;;5048719;28;20043;-55
2022/08/14 06:39:33;;;;;;;9.32;3.88;;;;;;;;;;5036905;28;20040;-56
2022/08/14 06:41:59;;;;;;;7.97;3.50;;;;;;;;;;5050816;28;20036;-56
2022/08/14 06:44:27;;;;;;;5.95;3.22;;;;;;;;;;5049110;28;21775;-56
2022/08/14 06:46:54;;;;;;;6.63;3.28;;;;;;;;;;5048379;28;20068;-56
2022/08/14 06:49:20;;;;;;;16.48;3.70;;;;;;;;;;5049038;28;20048;-56
2022/08/14 06:51:47;;;;;;;7.35;3.60;;;;;;;;;;5049766;28;21404;-56
2022/08/14 06:54:13;;;;;;;8.82;3.22;;;;;;;;;;5049667;28;20590;-56
2022/08/14 06:56:40;;;;;;;9.10;3.17;;;;;;;;;;5047921;28;20489;-56
2022/08/14 06:59:06;;;;;;;7.13;3.20;;;;;;;;;;5050359;28;20032;-55
2022/08/14 07:07:03;;;;;;;8.50;3.50;;;;;;;;;;5049386;28;20120;-55
2022/08/14 07:09:30;;;;;;;7.20;3.00;;;;;;;;;;5049508;28;20048;-57
2022/08/14 07:11:56;;;;;;;9.10;3.05;;;;;;;;;;5049513;28;20121;-57
2022/08/14 07:14:23;;;;;;;8.25;3.17;;;;;;;;;;5047429;28;20072;-56
2022/08/14 07:16:49;;;;;;;9.43;3.33;;;;;;;;;;5050990;28;20049;-57
2022/08/14 07:19:19;;;;;;;8.98;3.25;;;;;;;;;;5050205;28;20112;-57
2022/08/14 07:21:45;;;;;;;10.60;3.55;;;;;;;;;;5048433;28;20040;-57
2022/08/14 07:24:12;;;;;;;6.32;3.10;;;;;;;;;;5052033;28;20033;-57
2022/08/14 07:26:40;;;;;;;11.27;3.67;;;;;;;;;;5051426;28;20048;-57
2022/08/14 07:29:06;;;;;;;6.82;3.42;;;;;;;;;;5053121;28;20052;-57
2022/08/14 07:31:33;;;;;;;5.45;2.72;;;;;;;;;;5052755;28;20063;-55
2022/08/14 07:33:59;;;;;;;9.02;3.22;;;;;;;;;;5054747;28;20043;-57
2022/08/14 07:36:27;;;;;;;6.03;2.95;;;;;;;;;;5051393;28;20128;-57
2022/08/14 07:38:53;;;;;;;8.25;3.47;;;;;;;;;;5052725;28;20056;-58
2022/08/14 07:41:20;;;;;;;5.45;2.85;;;;;;;;;;5049464;28;20033;-56
2022/08/14 07:43:46;;;;;;;6.88;3.10;;;;;;;;;;5053805;28;20037;-58
2022/08/14 07:46:15;;;;;;;5.72;2.88;;;;;;;;;;5052996;28;20040;-58
2022/08/14 07:48:42;;;;;;;6.10;3.03;;;;;;;;;;5051626;28;20352;-58
2022/08/14 07:51:09;;;;;;;7.45;3.75;;;;;;;;;;5053222;28;20045;-58
2022/08/14 07:53:36;;;;;;;10.45;3.83;;;;;;;;;;5052197;28;20393;-57
2022/08/14 07:56:03;;;;;;;10.40;3.22;;;;;;;;;;5052379;28;21811;-58
2022/08/14 07:58:29;;;;;;;9.40;3.50;;;;;;;;;;5052110;28;20124;-57
2022/08/14 08:00:56;;;;;;;5.38;2.85;;;;;;;;;;5053375;28;20036;-56
2022/08/14 08:03:26;;;;;;;7.18;2.75;;;;;;;;;;5052114;28;20032;-57
2022/08/14 08:05:52;;;;;;;6.43;2.72;;;;;;;;;;5051778;28;20045;-58
2022/08/14 08:08:19;;;;;;;6.35;2.70;;;;;;;;;;5052073;28;20060;-57
2022/08/14 08:10:48;;;;;;;5.05;2.22;;;;;;;;;;5051186;28;20060;-58
2022/08/14 08:13:15;;;;;;;5.70;2.50;;;;;;;;;;5052999;28;20040;-57
2022/08/14 08:15:43;;;;;;;6.32;2.88;;;;;;;;;;5052008;28;20483;-57
2022/08/14 08:18:12;;;;;;;6.35;2.58;;;;;;;;;;5052909;28;20078;-57
2022/08/14 08:20:45;;;;;;;4.75;2.20;;;;;;;;;;5039319;28;20055;-57
2022/08/14 08:23:15;;;;;;;6.63;2.30;;;;;;;;;;5052798;28;20040;-55
2022/08/14 08:25:43;;;;;;;6.07;2.17;;;;;;;;;;5051316;28;20041;-55
2022/08/14 08:28:12;;;;;;;7.07;2.60;;;;;;;;;;5054115;28;20055;-57
2022/08/14 08:30:41;;;;;;;6.18;2.35;;;;;;;;;;5052009;28;20114;-57
2022/08/14 08:33:09;;;;;;;6.00;2.10;;;;;;;;;;5054273;28;20036;-55
2022/08/14 08:35:37;;;;;;;4.85;2.15;;;;;;;;;;5052150;28;20404;-57
2022/08/14 08:38:04;;;;;;;6.50;2.22;;;;;;;;;;5059742;28;20033;-57
2022/08/14 08:40:35;;;;;;;5.13;2.45;;;;;;;;;;5054355;28;20073;-56
2022/08/14 08:43:04;;;;;;;6.45;2.40;;;;;;;;;;5055058;28;20041;-56
2022/08/14 08:45:30;;;;;;;5.90;2.60;;;;;;;;;;5051264;28;20040;-56
2022/08/14 08:47:57;;;;;;;5.85;2.30;;;;;;;;;;5051987;28;20052;-57
2022/08/14 08:50:31;;;;;;;5.72;2.40;;;;;;;;;;5049551;28;20558;-57
2022/08/14 08:53:00;;;;;;;5.13;2.13;;;;;;;;;;5051822;28;20040;-57
2022/08/14 08:55:31;;;;;;;7.20;2.15;;;;;;;;;;5049378;28;20032;-57
2022/08/14 08:57:59;;;;;;;4.03;1.98;;;;;;;;;;5052818;28;20033;-65
2022/08/14 09:00:28;;;;;;;4.78;1.95;;;;;;;;;;5052008;28;20135;-54
2022/08/14 09:02:56;;;;;;;4.25;2.08;;;;;;;;;;5050712;28;20033;-56
2022/08/14 09:05:23;;;;;;;4.05;1.88;;;;;;;;;;5049810;28;20047;-56
2022/08/14 09:07:50;;;;;;;5.70;2.13;;;;;;;;;;5051433;28;20087;-56
2022/08/14 09:10:18;;;;;;;5.63;2.40;;;;;;;;;;5051850;28;20060;-55
2022/08/14 09:12:45;;;;;;;5.57;2.15;;;;;;;;;;5050007;28;20060;-66
2022/08/14 09:15:12;;;;;;;5.70;2.35;;;;;;;;;;5051183;28;20675;-65
2022/08/14 09:17:39;;;;;;;4.45;2.03;;;;;;;;;;5051036;28;20052;-66
2022/08/14 09:20:06;;;;;;;5.72;2.38;;;;;;;;;;5051489;28;21085;-66
2022/08/14 09:22:33;;;;;;;7.68;2.72;;;;;;;;;;5050629;28;20704;-66
2022/08/14 09:25:00;;;;;;;5.20;2.22;;;;;;;;;;5048971;28;20028;-66
2022/08/14 09:27:27;;;;;;;6.75;2.50;;;;;;;;;;5051372;28;20041;-67
2022/08/14 09:29:54;;;;;;;6.90;2.85;;;;;;;;;;5050764;28;20131;-66
2022/08/14 09:32:27;;;;;;;6.35;2.83;;;;;;;;;;5050680;28;20055;-67
2022/08/14 09:35:02;;;;;;;8.35;2.85;;;;;;;;;;5051463;28;20434;-65
2022/08/14 09:37:40;;;;;;;5.85;2.83;;;;;;;;;;5050574;28;20063;-65
2022/08/14 09:40:33;;;;;;;5.85;2.47;;;;;;;;;;5051619;28;20048;-66
2022/08/14 09:43:02;;;;;;;5.88;2.50;;;;;;;;;;5014632;28;20107;-66
2022/08/14 09:46:00;;;;;;;4.72;2.63;;;;;;;;;;5050079;28;20572;-66
2022/08/14 09:48:27;;;;;;;5.45;2.67;;;;;;;;;;5034259;28;20481;-66
2022/08/14 09:50:55;;;;;;;6.88;3.10;;;;;;;;;;5051105;28;20041;-66
2022/08/14 09:53:46;;;;;;;4.97;2.45;;;;;;;;;;5051219;28;20032;-66
2022/08/14 09:56:13;;;;;;;6.20;2.55;;;;;;;;;;5050690;28;20061;-67
2022/08/14 09:58:41;;;;;;;5.95;2.58;;;;;;;;;;5048883;28;20507;-67
2022/08/14 10:01:11;;;;;;;5.55;2.67;;;;;;;;;;5049647;28;20103;-67
2022/08/14 10:03:39;;;;;;;7.75;2.75;;;;;;;;;;5050103;28;20313;-67
2022/08/14 10:06:10;;;;;;;5.65;2.80;;;;;;;;;;5050660;28;20035;-66
2022/08/14 10:09:03;;;;;;;4.68;2.53;;;;;;;;;;5048405;28;20067;-66
2022/08/14 10:11:34;;;;;;;6.13;3.10;;;;;;;;;;5046094;28;20095;-66
2022/08/14 10:14:18;;;;;;;5.18;2.90;;;;;;;;;;5051206;28;20033;-67
2022/08/14 10:16:49;;;;;;;7.85;2.33;;;;;;;;;;5049540;28;20529;-66
2022/08/14 10:19:17;;;;;;;6.22;2.72;;;;;;;;;;5050417;28;20052;-66
2022/08/14 10:21:48;;;;;;;6.80;2.92;;;;;;;;;;5049792;28;20066;-64
2022/08/14 10:24:24;;;;;;;5.65;2.85;;;;;;;;;;5052117;28;20072;-67
2022/08/14 10:26:54;;;;;;;6.00;2.83;;;;;;;;;;5048869;28;20041;-65
2022/08/14 10:29:30;;;;;;;5.47;2.88;;;;;;;;;;5047710;28;20064;-65
2022/08/14 10:32:00;;;;;;;5.40;2.40;;;;;;;;;;5049898;28;20622;-66
2022/08/14 10:34:35;;;;;;;6.22;2.65;;;;;;;;;;5048824;28;20093;-65
2022/08/14 10:37:06;;;;;;;5.57;2.40;;;;;;;;;;5050174;28;20037;-65
2022/08/14 10:39:35;;;;;;;8.40;2.75;;;;;;;;;;5048661;28;20047;-65
2022/08/14 10:42:06;;;;;;;5.45;2.67;;;;;;;;;;5048680;28;20044;-64
2022/08/14 10:44:34;;;;;;;6.50;2.40;;;;;;;;;;5048567;28;20041;-65
2022/08/14 10:47:09;;;;;;;4.65;2.60;;;;;;;;;;5049772;28;20047;-65
2022/08/14 10:49:42;;;;;;;6.13;2.25;;;;;;;;;;5047704;28;20103;-64
2022/08/14 10:52:10;;;;;;;5.25;2.65;;;;;;;;;;5049964;28;20037;-64
2022/08/14 10:54:41;;;;;;;5.80;2.78;;;;;;;;;;5049542;28;20032;-65
2022/08/14 10:57:12;;;;;;;7.88;2.70;;;;;;;;;;5048261;28;20507;-65
2022/08/14 10:59:44;;;;;;;6.00;2.50;;;;;;;;;;5052458;28;20128;-65
2022/08/14 11:02:19;;;;;;;4.60;2.47;;;;;;;;;;5053896;28;20123;-65
2022/08/14 11:04:57;;;;;;;5.45;2.50;;;;;;;;;;5051220;28;20037;-64
2022/08/14 11:07:24;;;;;;;5.50;2.65;;;;;;;;;;5052159;28;20752;-65
2022/08/14 11:09:57;;;;;;;7.32;2.72;;;;;;;;;;5053588;28;20184;-64
2022/08/14 11:12:25;;;;;;;4.35;2.30;;;;;;;;;;5054223;28;20043;-64
2022/08/14 11:14:58;;;;;;;5.07;2.40;;;;;;;;;;5053847;28;20212;-64
2022/08/14 11:17:26;;;;;;;5.30;2.47;;;;;;;;;;5052870;28;20075;-64
2022/08/14 11:19:55;;;;;;;5.10;2.25;;;;;;;;;;5054431;28;20036;-65
2022/08/14 11:22:23;;;;;;;5.22;2.78;;;;;;;;;;5053477;28;20077;-65
2022/08/14 11:24:50;;;;;;;8.07;2.72;;;;;;;;;;5055584;28;20064;-65
2022/08/14 11:27:18;;;;;;;5.28;2.58;;;;;;;;;;5057100;28;20064;-64
2022/08/14 11:29:48;;;;;;;5.78;2.50;;;;;;;;;;5042866;28;20048;-64
2022/08/14 11:32:14;;;;;;;5.07;2.42;;;;;;;;;;5054834;28;20051;-65
2022/08/14 11:34:41;;;;;;;5.32;2.20;;;;;;;;;;5054200;28;20863;-62
2022/08/14 11:37:12;;;;;;;5.78;2.50;;;;;;;;;;5054611;28;20037;-67
2022/08/14 11:39:39;;;;;;;5.78;2.80;;;;;;;;;;5052211;28;20446;-65
2022/08/14 11:42:06;;;;;;;5.13;2.55;;;;;;;;;;5053698;28;20033;-65
2022/08/14 11:44:33;;;;;;;3.88;2.17;;;;;;;;;;5053165;28;20050;-66
2022/08/14 11:47:02;;;;;;;4.72;2.38;;;;;;;;;;5054185;28;20033;-64
2022/08/14 11:49:30;;;;;;;6.72;2.60;;;;;;;;;;5051942;28;20053;-64
2022/08/14 11:51:57;;;;;;;5.03;2.50;;;;;;;;;;5052298;28;20055;-65
2022/08/14 11:54:24;;;;;;;5.25;2.72;;;;;;;;;;5051849;28;20710;-65
2022/08/14 11:56:51;;;;;;;5.32;2.45;;;;;;;;;;5054502;28;20476;-65
2022/08/14 11:59:21;;;;;;;4.90;2.13;;;;;;;;;;5054706;28;20036;-65
2022/08/14 12:01:48;;;;;;;4.22;2.17;;;;;;;;;;5053038;28;20410;-64
2022/08/14 12:04:20;;;;;;;4.88;2.42;;;;;;;;;;5054032;28;20032;-64
2022/08/14 12:06:47;;;;;;;4.70;2.25;;;;;;;;;;5053265;28;20083;-64
2022/08/14 12:09:15;;;;;;;6.25;2.25;;;;;;;;;;5051918;28;20040;-64
2022/08/14 12:11:43;;;;;;;5.55;2.45;;;;;;;;;;5052812;28;20064;-64
2022/08/14 12:14:10;;;;;;;5.70;2.97;;;;;;;;;;5039731;28;20037;-65
2022/08/14 12:16:37;;;;;;;5.00;2.30;;;;;;;;;;5052565;28;20091;-65
2022/08/14 12:19:04;;;;;;;4.72;2.47;;;;;;;;;;5040714;28;20044;-64
2022/08/14 12:21:31;;;;;;;4.85;2.50;;;;;;;;;;5053442;28;20047;-65
2022/08/14 12:24:18;;;;;;;7.75;2.53;;;;;;;;;;5053940;28;20053;-64
2022/08/14 12:26:53;;;;;;;5.47;2.30;;;;;;;;;;5056000;28;20055;-66
2022/08/14 12:29:20;;;;;;;5.13;2.33;;;;;;;;;;5050953;28;20148;-64
2022/08/14 12:31:57;;;;;;;8.57;2.40;;;;;;;;;;5053582;28;20037;-65
2022/08/14 12:34:30;;;;;;;5.40;2.50;;;;;;;;;;5052866;28;20071;-65
2022/08/14 12:37:04;;;;;;;6.05;2.88;;;;;;;;;;5051812;28;20049;-65
2022/08/14 12:39:32;;;;;;;5.32;2.40;;;;;;;;;;5041610;28;20040;-64
2022/08/14 12:42:09;;;;;;;4.80;2.33;;;;;;;;;;5052418;28;20036;-64
2022/08/14 12:44:37;;;;;;;4.80;2.00;;;;;;;;;;5052030;28;20083;-65
2022/08/14 12:47:15;;;;;;;4.50;2.10;;;;;;;;;;5053367;28;20105;-65
2022/08/14 12:49:52;;;;;;;5.03;2.63;;;;;;;;;;5039690;28;20048;-65
2022/08/14 12:52:30;;;;;;;6.05;2.40;;;;;;;;;;5051747;28;20043;-65
2022/08/14 12:54:57;;;;;;;6.68;2.70;;;;;;;;;;5054114;28;20060;-68
2022/08/14 12:57:32;;;;;;;6.65;2.38;;;;;;;;;;5056126;28;20170;-67
2022/08/14 13:00:31;;;;;;;7.20;2.50;;;;;;;;;;5054308;28;20478;-66
2022/08/14 13:02:58;;;;;;;7.07;2.42;;;;;;;;;;5021491;28;20531;-67
2022/08/14 13:05:28;;;;;;;4.85;2.30;;;;;;;;;;5052314;28;20047;-65
2022/08/14 13:07:56;;;;;;;10.32;2.30;;;;;;;;;;5054324;28;20132;-65
2022/08/14 13:10:23;;;;;;;5.93;2.15;;;;;;;;;;5052648;28;20574;-65
2022/08/14 13:12:51;;;;;;;5.53;2.40;;;;;;;;;;5054409;28;20616;-66
2022/08/14 13:15:18;;;;;;;4.30;2.03;;;;;;;;;;5054319;28;20367;-66
2022/08/14 13:17:49;;;;;;;6.32;2.33;;;;;;;;;;5052499;28;20922;-65
2022/08/14 13:20:17;;;;;;;4.90;2.10;;;;;;;;;;5052103;28;20063;-65
2022/08/14 13:22:44;;;;;;;5.22;2.20;;;;;;;;;;5052560;28;20040;-66
2022/08/14 13:25:17;;;;;;;5.57;2.20;;;;;;;;;;5053027;28;20056;-65
2022/08/14 13:27:48;;;;;;;6.22;2.28;;;;;;;;;;5052590;28;20618;-66
2022/08/14 13:30:16;;;;;;;3.90;1.88;;;;;;;;;;5054276;28;20044;-66
2022/08/14 13:32:44;;;;;;;5.22;2.30;;;;;;;;;;5050244;28;20098;-65
2022/08/14 13:35:11;;;;;;;5.40;1.90;;;;;;;;;;5051440;28;20047;-65
2022/08/14 13:37:38;;;;;;;5.32;1.92;;;;;;;;;;5051607;28;20106;-66
2022/08/14 13:40:05;;;;;;;4.85;2.38;;;;;;;;;;5052437;28;20043;-66
2022/08/14 13:42:32;;;;;;;8.82;2.40;;;;;;;;;;5052045;28;20055;-66
2022/08/14 13:45:00;;;;;;;4.50;1.90;;;;;;;;;;5049958;28;20037;-66
2022/08/14 13:47:31;;;;;;;5.55;2.03;;;;;;;;;;5054349;28;20065;-66
2022/08/14 13:50:01;;;;;;;4.70;2.20;;;;;;;;;;5053536;28;20041;-65
2022/08/14 13:52:30;;;;;;;6.85;2.35;;;;;;;;;;5052540;28;20029;-66
2022/08/14 13:54:58;;;;;;;3.75;1.90;;;;;;;;;;5054193;28;20061;-66
2022/08/14 13:57:26;;;;;;;3.97;1.92;;;;;;;;;;5053711;28;20127;-66
2022/08/14 13:59:53;;;;;;;6.15;2.25;;;;;;;;;;5041149;28;20042;-66
2022/08/14 14:02:20;;;;;;;5.40;1.95;;;;;;;;;;5053800;28;20635;-65
2022/08/14 14:04:48;;;;;;;4.50;1.95;;;;;;;;;;5055052;28;20043;-65
2022/08/14 14:07:17;;;;;;;5.32;1.67;;;;;;;;;;5054005;28;20036;-63
2022/08/14 14:09:44;;;;;;;3.63;1.83;;;;;;;;;;5056956;28;20036;-64
2022/08/14 14:12:12;;;;;;;5.13;1.80;;;;;;;;;;5054692;28;20041;-63
2022/08/14 14:14:42;;;;;;;4.38;2.08;;;;;;;;;;5040759;28;20077;-63
2022/08/14 14:17:13;;;;;;;4.80;2.13;;;;;;;;;;5053981;28;20051;-63
2022/08/14 14:19:45;;;;;;;4.20;1.85;;;;;;;;;;5051498;28;20071;-64
2022/08/14 14:22:15;;;;;;;3.97;2.03;;;;;;;;;;5054417;28;20032;-63
2022/08/14 14:24:42;;;;;;;5.43;2.20;;;;;;;;;;5053832;28;20045;-63
2022/08/14 14:27:10;;;;;;;4.72;1.88;;;;;;;;;;5052975;28;20094;-64
2022/08/14 14:29:37;;;;;;;5.05;1.63;;;;;;;;;;5051477;28;20052;-63
2022/08/14 14:32:04;;;;;;;3.63;1.65;;;;;;;;;;5053954;28;20043;-64
2022/08/14 14:34:32;;;;;;;5.13;2.00;;;;;;;;;;5051948;28;20051;-64
2022/08/14 14:37:03;;;;;;;5.90;2.33;;;;;;;;;;5053902;28;20267;-64
2022/08/14 14:39:31;;;;;;;4.88;2.35;;;;;;;;;;5053317;28;20141;-65
2022/08/14 14:41:58;;;;;;;4.25;1.98;;;;;;;;;;5053820;28;20044;-66
2022/08/14 14:44:30;;;;;;;4.47;2.05;;;;;;;;;;5053356;28;20029;-65
2022/08/14 14:46:57;;;;;;;4.63;2.00;;;;;;;;;;5052912;28;20056;-64
2022/08/14 14:49:25;;;;;;;4.75;1.77;;;;;;;;;;5052209;28;20309;-64
2022/08/14 14:51:52;;;;;;;4.47;1.88;;;;;;;;;;5053341;28;20051;-65
2022/08/14 14:54:20;;;;;;;5.55;1.85;;;;;;;;;;5050619;28;20580;-64
2022/08/14 14:56:47;;;;;;;4.95;1.90;;;;;;;;;;5050954;28;20048;-65
2022/08/14 14:59:14;;;;;;;5.00;2.03;;;;;;;;;;5051261;28;20052;-64
2022/08/14 15:01:43;;;;;;;5.10;2.15;;;;;;;;;;5049657;28;20037;-64
2022/08/14 15:04:10;;;;;;;9.00;3.00;;;;;;;;;;5051099;28;20446;-63
2022/08/14 15:06:37;;;;;;;4.78;2.05;;;;;;;;;;5049372;28;20084;-64
2022/08/14 15:09:03;;;;;;;3.90;2.00;;;;;;;;;;5051767;28;20055;-65